CheckWX is a tool to help pilots better visualize weather data.  It is not intended as a substitute for an official pre-flight weather briefing.

16:11:34 UTC

ESMX METAR
Växjö Kronoberg Airport
Växjö, Sweden
Current

22 mins ago

ESMX 261550Z 25013KT 210V290 9999 SCT045 14/04 Q1001
Observed
May-26 @ 15:50 UTC
Wind
  • 250° at 13 KTS
Visibility
10,000+ meters
Flight Rules
VFR
Cloud Levels
  • Scattered at 4,500' AGL
Temperature
14°C / 57°F
Dewpoint
C / 39°F
Humidity
51%
Altimeter
29.56" Hg
Pressure
1000.92 hPa
Previous

52 mins ago

ESMX 261520Z 24014KT 9999 FEW046 14/03 Q1001
Observed
May-26 @ 15:20 UTC
Wind
  • 240° at 14 KTS
Visibility
10,000+ meters
Flight Rules
VFR
Cloud Levels
  • Few at 4,600' AGL
Temperature
14°C / 57°F
Dewpoint
C / 37°F
Humidity
48%
Altimeter
29.56" Hg
Pressure
1000.92 hPa
Previous

1 hour ago

ESMX 261450Z 24014G25KT 210V280 9999 FEW047 14/03 Q1001
Observed
May-26 @ 14:50 UTC
Wind
  • 240° at 14 KTS
  • Gusting to 25 KTS
Visibility
10,000+ meters
Flight Rules
VFR
Cloud Levels
  • Few at 4,700' AGL
Temperature
14°C / 57°F
Dewpoint
C / 37°F
Humidity
48%
Altimeter
29.56" Hg
Pressure
1000.92 hPa